Time;durP1;ratioP1;P1;durP2;ratioP2;P2;SDS_P1;SDS_P2;PMS_P1;PMS_P2;Temp;Humidity;BMP_temperature;BMP_pressure;BME280_temperature;BME280_humidity;BME280_pressure;Samples;Min_cycle;Max_cycle;Signal;HPM_P1;HPM_P2
2021/05/20 00:00:53;;;;;;;14.27;6.63;;;;;;;12.95;67.84;99890.66;125074;1100;104008;-78
2021/05/20 00:03:23;;;;;;;16.13;7.70;;;;;;;12.93;67.12;99887.13;125150;1099;103923;-78
2021/05/20 00:05:56;;;;;;;15.23;7.50;;;;;;;12.86;67.58;99889.63;125224;1099;103938;-79
2021/05/20 00:08:26;;;;;;;19.07;7.67;;;;;;;12.83;67.66;99889.58;125215;1099;103944;-79
2021/05/20 00:10:57;;;;;;;15.17;7.97;;;;;;;12.82;67.71;99885.16;125161;1099;104029;-78
2021/05/20 00:13:27;;;;;;;15.50;7.73;;;;;;;12.86;68.04;99881.73;125076;1099;104466;-79
2021/05/20 00:15:57;;;;;;;17.30;7.63;;;;;;;12.90;68.03;99876.54;125155;1099;103925;-79
2021/05/20 00:18:27;;;;;;;15.93;8.07;;;;;;;12.90;67.74;99870.36;125145;1097;103935;-78
2021/05/20 00:20:58;;;;;;;18.50;7.80;;;;;;;12.87;67.82;99876.48;125217;1099;103913;-79
2021/05/20 00:23:28;;;;;;;17.97;7.90;;;;;;;12.82;68.00;99882.53;125182;1099;103984;-77
2021/05/20 00:25:59;;;;;;;15.87;8.27;;;;;;;12.77;67.98;99883.33;125127;1102;103941;-78
2021/05/20 00:28:29;;;;;;;17.77;8.33;;;;;;;12.76;67.97;99888.56;125199;1099;104012;-78
2021/05/20 00:31:00;;;;;;;16.90;8.13;;;;;;;12.78;68.00;99894.77;125173;1099;103929;-78
2021/05/20 00:33:30;;;;;;;14.03;8.10;;;;;;;12.82;68.26;99896.56;125135;1099;103929;-77
2021/05/20 00:36:00;;;;;;;17.57;8.10;;;;;;;12.86;68.14;99906.30;125130;1102;104111;-79
2021/05/20 00:38:30;;;;;;;14.53;7.27;;;;;;;12.81;68.23;99918.52;125078;1099;103922;-78
2021/05/20 00:41:01;;;;;;;17.87;7.80;;;;;;;12.74;67.95;99924.52;125135;1099;103932;-78
2021/05/20 00:43:32;;;;;;;15.17;7.70;;;;;;;12.65;68.21;99914.70;125228;1099;104015;-79
2021/05/20 00:46:03;;;;;;;15.23;7.17;;;;;;;12.58;68.08;99911.08;125211;1099;103977;-77
2021/05/20 00:48:33;;;;;;;14.50;7.17;;;;;;;12.58;68.25;99913.71;125331;1099;104041;-78
2021/05/20 00:51:03;;;;;;;12.60;6.80;;;;;;;12.60;68.29;99916.38;125167;1102;104079;-78
2021/05/20 00:53:34;;;;;;;12.67;6.67;;;;;;;12.60;68.45;99905.84;125105;1102;103948;-77
2021/05/20 00:56:06;;;;;;;15.73;7.50;;;;;;;12.58;68.63;99895.29;126284;1099;104107;-78
2021/05/20 00:58:37;;;;;;;11.60;6.43;;;;;;;12.55;68.82;99886.46;126274;1099;103919;-78
2021/05/20 01:01:10;;;;;;;11.90;6.73;;;;;;;12.53;68.32;99901.34;126190;1099;104010;-78
2021/05/20 01:03:40;;;;;;;12.27;6.77;;;;;;;12.50;68.51;99896.03;126114;1099;104069;-78
2021/05/20 01:06:11;;;;;;;14.23;6.43;;;;;;;12.50;68.64;99893.40;125128;1097;104047;-78
2021/05/20 01:08:41;;;;;;;16.93;7.10;;;;;;;12.56;69.00;99891.75;125139;1102;103974;-78
2021/05/20 01:11:11;;;;;;;16.33;6.70;;;;;;;12.62;68.84;99890.98;125223;1099;103923;-79
2021/05/20 01:13:42;;;;;;;13.33;6.30;;;;;;;12.66;68.95;99887.53;125172;1099;104918;-78
2021/05/20 01:16:13;;;;;;;12.97;6.47;;;;;;;12.70;68.78;99885.83;125257;1099;108970;-78
2021/05/20 01:18:43;;;;;;;12.40;6.50;;;;;;;12.72;68.75;99887.64;125424;1099;103920;-79
2021/05/20 01:21:15;;;;;;;13.95;6.30;;;;;;;12.61;68.48;99889.20;126263;1099;104625;-78
2021/05/20 01:23:45;;;;;;;18.40;7.03;;;;;;;12.48;68.67;99872.32;126321;1099;103919;-78
2021/05/20 01:26:16;;;;;;;13.83;6.80;;;;;;;12.39;68.47;99877.41;125213;1099;104047;-79
2021/05/20 01:28:46;;;;;;;16.03;7.07;;;;;;;12.30;68.62;99877.24;125089;1099;103921;-79
2021/05/20 01:31:17;;;;;;;15.53;8.00;;;;;;;12.21;68.70;99876.19;125169;1099;104783;-78
2021/05/20 01:33:47;;;;;;;15.47;7.43;;;;;;;12.15;68.83;99876.06;125205;1099;103987;-79
2021/05/20 01:36:26;;;;;;;13.70;7.20;;;;;;;12.15;69.12;99876.06;125244;1099;104008;-78
2021/05/20 01:38:59;;;;;;;17.17;7.67;;;;;;;12.21;69.29;99876.19;125346;1099;104070;-78
2021/05/20 01:41:32;;;;;;;14.80;8.00;;;;;;;12.31;69.47;99872.01;125317;1099;103919;-77
2021/05/20 01:44:02;;;;;;;15.07;7.77;;;;;;;12.40;69.11;99880.08;125331;1099;103913;-78
2021/05/20 01:46:32;;;;;;;16.87;6.93;;;;;;;12.43;69.47;99884.48;125266;1099;104079;-78
2021/05/20 01:49:09;;;;;;;12.93;7.10;;;;;;;12.46;69.25;99881.03;125178;1102;104022;-78
2021/05/20 01:51:40;;;;;;;16.53;7.43;;;;;;;12.54;69.34;99882.05;125214;1102;104707;-76
2021/05/20 01:54:10;;;;;;;17.60;7.50;;;;;;;12.56;69.54;99890.88;125220;1101;104076;-78
2021/05/20 01:56:40;;;;;;;14.90;7.77;;;;;;;12.61;69.74;99888.33;125164;1102;103941;-77
2021/05/20 01:59:11;;;;;;;12.83;7.07;;;;;;;12.64;69.46;99881.36;125256;1102;104176;-78
2021/05/20 02:01:42;;;;;;;14.23;6.87;;;;;;;12.63;69.38;99884.84;125241;1102;103989;-78
2021/05/20 02:04:13;;;;;;;14.40;6.70;;;;;;;12.63;69.50;99876.07;125215;1102;104121;-78
2021/05/20 02:06:43;;;;;;;15.10;6.80;;;;;;;12.62;69.53;99884.81;125142;1102;104061;-77
2021/05/20 02:09:13;;;;;;;12.90;6.70;;;;;;;12.66;69.78;99879.63;125218;1102;103980;-77
2021/05/20 02:11:43;;;;;;;15.00;6.67;;;;;;;12.70;69.47;99876.20;125254;1102;104083;-78
2021/05/20 02:14:13;;;;;;;11.83;6.57;;;;;;;12.71;69.35;99879.71;125251;1102;103945;-78
2021/05/20 02:16:44;;;;;;;11.67;6.00;;;;;;;12.70;69.58;99872.66;125131;1102;104070;-79
2021/05/20 02:19:14;;;;;;;14.57;6.20;;;;;;;12.72;69.91;99876.23;125193;1102;104162;-79
2021/05/20 02:21:44;;;;;;;12.10;6.17;;;;;;;12.78;69.55;99881.60;125219;1099;103941;-78
2021/05/20 02:24:14;;;;;;;14.87;6.60;;;;;;;12.82;69.80;99883.41;125195;1099;103926;-78
2021/05/20 02:26:44;;;;;;;12.07;6.17;;;;;;;12.87;69.85;99886.11;125088;1099;103916;-78
2021/05/20 02:29:14;;;;;;;11.13;6.10;;;;;;;12.89;69.53;99892.31;126247;1099;103999;-79
2021/05/20 02:31:45;;;;;;;12.43;6.23;;;;;;;12.89;69.64;99893.19;125116;1099;101577;-77
2021/05/20 02:34:15;;;;;;;10.67;5.77;;;;;;;12.90;69.79;99888.80;126295;1099;103929;-78
2021/05/20 02:36:45;;;;;;;14.47;6.70;;;;;;;12.90;69.65;99886.16;125342;1099;104005;-78
2021/05/20 02:39:16;;;;;;;15.20;6.87;;;;;;;12.92;69.52;99879.20;125155;1099;104015;-79
2021/05/20 02:41:47;;;;;;;11.07;6.10;;;;;;;12.96;69.70;99878.36;125200;1099;103923;-78
2021/05/20 02:44:17;;;;;;;13.00;6.50;;;;;;;13.04;69.70;99875.86;125064;1099;104543;-78
2021/05/20 02:46:47;;;;;;;12.57;6.10;;;;;;;13.06;69.47;99874.16;126147;1099;104480;-78
2021/05/20 02:49:17;;;;;;;12.70;5.50;;;;;;;13.02;69.99;99872.32;125200;1099;103912;-78
2021/05/20 02:51:47;;;;;;;13.20;5.77;;;;;;;12.89;69.38;99869.48;125180;1099;104019;-77
2021/05/20 02:54:17;;;;;;;11.83;6.07;;;;;;;12.77;69.75;99867.53;125187;1099;104438;-77
2021/05/20 02:56:48;;;;;;;13.27;5.97;;;;;;;12.66;69.53;99863.84;125105;1099;103996;-79
2021/05/20 02:59:18;;;;;;;14.20;6.20;;;;;;;12.57;69.79;99864.59;125174;1099;103999;-79
2021/05/20 03:01:49;;;;;;;15.07;7.07;;;;;;;12.50;69.62;99861.82;125130;1102;103917;-78
2021/05/20 03:04:19;;;;;;;14.53;6.90;;;;;;;12.48;70.26;99864.42;125168;1099;103970;-78
2021/05/20 03:06:49;;;;;;;15.03;7.30;;;;;;;12.55;69.85;99861.02;125125;1098;104018;-78
2021/05/20 03:09:19;;;;;;;15.10;6.93;;;;;;;12.55;69.92;99862.78;125191;1099;104166;-79
2021/05/20 03:11:49;;;;;;;11.17;6.23;;;;;;;12.51;69.73;99861.84;125140;1099;104079;-79
2021/05/20 03:14:22;;;;;;;14.20;6.20;;;;;;;12.45;69.72;99852.94;125186;1099;105120;-79
2021/05/20 03:16:54;;;;;;;15.30;6.77;;;;;;;12.34;69.27;99847.48;125172;1102;104032;-78
2021/05/20 03:19:24;;;;;;;18.97;6.37;;;;;;;12.27;69.55;99848.25;125138;1102;103957;-77
2021/05/20 03:21:55;;;;;;;16.10;6.07;;;;;;;12.21;69.89;99847.25;125216;1102;104031;-79
2021/05/20 03:24:25;;;;;;;12.17;6.00;;;;;;;12.19;69.91;99848.10;125202;1102;103940;-78
2021/05/20 03:26:55;;;;;;;15.47;6.43;;;;;;;12.20;69.99;99849.86;125182;1102;104250;-78
2021/05/20 03:29:25;;;;;;;12.90;6.60;;;;;;;12.21;70.21;99847.25;125157;1101;103929;-78
2021/05/20 03:31:55;;;;;;;13.30;6.10;;;;;;;12.25;70.06;99847.31;125213;1102;104086;-78
2021/05/20 03:34:26;;;;;;;15.15;6.80;;;;;;;12.28;70.22;99848.28;125108;1102;104029;-78
2021/05/20 03:36:56;;;;;;;12.90;6.57;;;;;;;12.30;70.06;99851.81;125171;1102;104079;-78
2021/05/20 03:39:26;;;;;;;12.30;5.60;;;;;;;12.28;70.11;99837.75;125237;1102;104098;-78
2021/05/20 03:41:56;;;;;;;13.30;6.27;;;;;;;12.29;70.17;99838.63;125256;1102;103920;-78
2021/05/20 03:44:27;;;;;;;11.73;5.47;;;;;;;12.27;70.06;99840.36;125249;1102;103957;-78
2021/05/20 03:46:58;;;;;;;12.20;5.67;;;;;;;12.23;70.18;99834.13;125079;1102;104142;-79
2021/05/20 03:49:28;;;;;;;11.43;5.90;;;;;;;12.18;70.12;99835.80;125090;1102;104117;-79
2021/05/20 03:51:59;;;;;;;11.80;5.70;;;;;;;12.17;70.20;99834.92;125046;1099;102199;-78
2021/05/20 03:54:30;;;;;;;16.77;5.80;;;;;;;12.20;70.36;99839.33;125127;1099;104049;-78
2021/05/20 03:57:00;;;;;;;11.60;5.80;;;;;;;12.18;70.18;99836.67;125035;1099;103964;-78
2021/05/20 03:59:33;;;;;;;11.45;5.80;;;;;;;12.17;70.14;99834.92;125003;1100;108283;-78
2021/05/20 04:02:03;;;;;;;9.60;5.20;;;;;;;12.17;70.19;99836.64;126040;1099;105621;-77
2021/05/20 04:04:34;;;;;;;14.10;5.87;;;;;;;12.17;70.25;99834.92;126236;1099;103931;-76
2021/05/20 04:07:05;;;;;;;9.57;5.33;;;;;;;12.17;70.28;99831.39;126291;1099;103921;-76
2021/05/20 04:09:35;;;;;;;13.67;6.13;;;;;;;12.16;70.34;99833.14;125183;1099;104005;-77
2021/05/20 04:12:06;;;;;;;12.63;5.60;;;;;;;12.15;70.49;99819.96;125174;1099;103987;-76
2021/05/20 04:14:36;;;;;;;12.87;5.90;;;;;;;12.16;70.54;99813.86;125176;1099;103931;-76
2021/05/20 04:17:07;;;;;;;10.97;5.63;;;;;;;12.19;70.54;99817.42;125140;1099;103977;-77
2021/05/20 04:19:37;;;;;;;12.03;5.87;;;;;;;12.21;70.60;99809.55;125156;1099;104092;-76
2021/05/20 04:22:07;;;;;;;13.27;5.70;;;;;;;12.25;70.62;99816.66;125088;1099;103931;-77
2021/05/20 04:24:37;;;;;;;8.93;5.10;;;;;;;12.27;70.52;99814.05;125071;1099;104092;-78
2021/05/20 04:27:09;;;;;;;12.73;5.40;;;;;;;12.32;70.56;99818.52;125174;1099;103971;-78
2021/05/20 04:29:41;;;;;;;13.00;5.90;;;;;;;12.40;70.63;99826.55;125117;1102;104156;-80
2021/05/20 04:32:20;;;;;;;12.23;6.03;;;;;;;12.48;70.80;99826.67;125062;1102;103919;-78
2021/05/20 04:34:52;;;;;;;14.20;5.90;;;;;;;12.54;70.80;99830.33;125109;1102;103925;-78
2021/05/20 04:37:23;;;;;;;13.60;6.00;;;;;;;12.59;70.74;99830.40;125038;1102;104241;-77
2021/05/20 04:39:53;;;;;;;12.23;5.47;;;;;;;12.59;70.92;99826.02;124825;1102;103954;-78
2021/05/20 04:42:23;;;;;;;13.27;5.63;;;;;;;12.58;70.84;99833.87;124848;1102;104229;-78
2021/05/20 04:44:53;;;;;;;12.80;5.37;;;;;;;12.52;70.71;99829.39;125131;1102;104197;-77
2021/05/20 04:47:23;;;;;;;10.57;5.40;;;;;;;12.46;70.53;99831.91;125066;1102;103955;-79
2021/05/20 04:49:54;;;;;;;14.03;5.43;;;;;;;12.40;70.79;99830.08;125044;1102;103918;-77
2021/05/20 04:52:24;;;;;;;14.20;5.30;;;;;;;12.40;70.72;99827.45;125013;1102;104005;-76
2021/05/20 04:54:57;;;;;;;12.20;4.97;;;;;;;12.41;70.75;99828.33;125162;1102;103932;-77
2021/05/20 04:57:27;;;;;;;14.47;5.27;;;;;;;12.44;70.99;99833.64;125137;1103;102575;-77
2021/05/20 04:59:57;;;;;;;13.40;5.77;;;;;;;12.43;70.74;99829.23;125042;1102;104018;-78
2021/05/20 05:02:28;;;;;;;12.60;5.43;;;;;;;12.46;71.28;99829.28;125080;1102;103961;-78
2021/05/20 05:04:58;;;;;;;9.70;5.00;;;;;;;12.47;70.80;99838.08;125072;1102;103927;-78
2021/05/20 05:07:28;;;;;;;11.87;5.60;;;;;;;12.47;70.80;99830.19;125043;1100;104143;-77
2021/05/20 05:09:59;;;;;;;12.93;5.30;;;;;;;12.49;71.06;99831.97;125059;1102;103919;-78
2021/05/20 05:12:32;;;;;;;15.97;5.77;;;;;;;12.49;70.90;99829.34;125028;1102;104005;-79
2021/05/20 05:15:03;;;;;;;15.57;5.77;;;;;;;12.54;70.94;99829.41;125153;1103;104054;-78
2021/05/20 05:17:37;;;;;;;13.53;5.43;;;;;;;12.54;70.93;99822.42;125115;1102;104031;-79
2021/05/20 05:20:09;;;;;;;19.20;5.77;;;;;;;12.52;71.13;99820.62;125177;1102;104206;-79
2021/05/20 05:22:45;;;;;;;14.53;6.47;;;;;;;12.54;70.91;99814.53;125110;1102;104181;-78
2021/05/20 05:25:16;;;;;;;16.20;6.53;;;;;;;12.55;71.15;99818.04;125134;1102;104087;-79
2021/05/20 05:27:47;;;;;;;15.20;6.70;;;;;;;12.58;71.04;99818.97;125003;1102;104050;-80
2021/05/20 05:30:25;;;;;;;15.30;6.47;;;;;;;12.71;71.20;99821.80;125068;1102;103948;-80
2021/05/20 05:32:56;;;;;;;12.95;6.20;;;;;;;12.79;71.26;99817.53;125140;1102;104000;-79
2021/05/20 05:35:32;;;;;;;15.27;6.23;;;;;;;12.86;71.21;99821.17;125019;1102;104061;-78
2021/05/20 05:38:02;;;;;;;16.57;5.97;;;;;;;12.94;71.31;99820.41;124988;1102;104005;-78
2021/05/20 05:40:37;;;;;;;12.17;5.33;;;;;;;13.02;71.17;99822.28;125146;1101;104120;-81
2021/05/20 05:43:08;;;;;;;12.05;6.00;;;;;;;13.06;70.83;99818.84;124993;1099;104058;-80
2021/05/20 05:45:41;;;;;;;;;;;;;;;13.12;70.85;99818.94;125086;1099;102628;-78
2021/05/20 05:48:15;;;;;;;17.93;5.57;;;;;;;13.15;70.99;99818.98;125049;1099;104016;-81
2021/05/20 05:50:50;;;;;;;;;;;;;;;13.20;70.96;99819.92;124939;1102;104014;-80
2021/05/20 05:53:24;;;;;;;13.20;5.77;;;;;;;13.25;70.88;99826.13;124936;1102;103987;-78
2021/05/20 05:55:57;;;;;;;10.23;5.63;;;;;;;13.39;70.61;99833.38;124952;1102;103974;-80
2021/05/20 05:58:27;;;;;;;11.83;5.10;;;;;;;13.51;71.30;99836.19;125702;1102;104120;-79
2021/05/20 06:00:58;;;;;;;11.77;5.50;;;;;;;13.61;70.46;99837.18;124894;1102;103995;-78
2021/05/20 06:03:30;;;;;;;9.80;5.10;;;;;;;13.63;70.78;99830.16;124957;1102;105430;-80
2021/05/20 06:06:02;;;;;;;10.47;5.70;;;;;;;13.71;71.15;99846.08;124996;1102;104146;-78
2021/05/20 06:08:37;;;;;;;16.57;6.10;;;;;;;13.71;70.31;99846.95;125121;1102;103954;-79
2021/05/20 06:11:09;;;;;;;13.37;5.97;;;;;;;13.74;71.02;99854.91;124904;1102;104165;-78
2021/05/20 06:13:42;;;;;;;15.50;5.47;;;;;;;13.77;70.56;99861.98;125021;1102;104059;-77
2021/05/20 06:16:16;;;;;;;10.17;5.50;;;;;;;13.80;70.60;99876.08;125031;1102;104206;-78
2021/05/20 06:18:46;;;;;;;14.17;6.30;;;;;;;13.88;71.10;99880.58;125130;1102;103951;-76
2021/05/20 06:21:19;;;;;;;13.50;6.07;;;;;;;13.99;71.15;99887.77;125032;1102;104444;-77
2021/05/20 06:23:52;;;;;;;10.67;5.13;;;;;;;14.07;70.68;99889.58;125033;1102;104009;-80
2021/05/20 06:26:27;;;;;;;13.58;5.65;;;;;;;14.08;70.53;99894.87;125304;1102;104101;-79
2021/05/20 06:28:59;;;;;;;9.03;4.87;;;;;;;14.11;70.68;99894.05;125177;1102;103986;-78
2021/05/20 06:31:32;;;;;;;13.07;5.30;;;;;;;14.17;71.03;99896.75;124999;1102;103947;-79
2021/05/20 06:34:09;;;;;;;11.83;4.57;;;;;;;14.20;70.44;99899.42;125168;1102;103056;-77
2021/05/20 06:36:45;;;;;;;8.67;4.67;;;;;;;14.20;70.54;99899.42;125043;1099;104008;-79
2021/05/20 06:39:19;;;;;;;16.23;4.77;;;;;;;14.22;70.05;99902.95;125044;1102;103951;-79
2021/05/20 06:41:54;;;;;;;9.97;4.73;;;;;;;14.20;70.82;99909.98;125041;1099;103960;-78
2021/05/20 06:44:26;;;;;;;8.90;4.60;;;;;;;14.20;70.71;99907.34;125072;1102;103932;-78
2021/05/20 06:46:58;;;;;;;14.17;5.20;;;;;;;14.23;70.87;99904.73;125027;1102;104053;-78
2021/05/20 06:49:30;;;;;;;10.03;4.70;;;;;;;14.20;70.65;99908.22;124978;1099;103909;-77
2021/05/20 06:52:05;;;;;;;13.63;5.40;;;;;;;14.23;70.26;99909.11;124927;1099;103989;-77
2021/05/20 06:54:36;;;;;;;17.05;6.95;;;;;;;14.23;70.71;99910.02;125750;1099;103990;-77
2021/05/20 06:57:17;;;;;;;19.73;8.93;;;;;;;14.27;70.53;99914.44;124983;1102;103925;-79
2021/05/20 06:59:58;;;;;;;21.73;8.87;;;;;;;14.29;70.32;99920.64;125037;1102;104194;-77
2021/05/20 07:02:32;;;;;;;;;;;;;;;14.33;70.67;99917.15;125140;1102;104440;-78
2021/05/20 07:05:08;;;;;;;22.37;7.70;;;;;;;14.35;70.33;99912.80;124993;1102;103986;-76
2021/05/20 07:07:39;;;;;;;13.80;7.17;;;;;;;14.34;70.04;99907.50;124980;1102;103980;-77
2021/05/20 07:10:14;;;;;;;10.80;5.20;;;;;;;14.30;69.99;99916.23;124919;1102;102115;-79
2021/05/20 07:16:14;;;;;;;12.03;5.77;;;;;;;14.17;70.63;99909.94;126248;1102;101672;-81
2021/05/20 07:18:53;;;;;;;16.93;6.70;;;;;;;14.17;70.18;99910.81;125926;1102;102273;-80
2021/05/20 07:21:41;;;;;;;11.27;6.13;;;;;;;14.24;70.71;99913.53;126270;1102;103295;-79
2021/05/20 07:24:15;;;;;;;16.67;6.07;;;;;;;14.31;70.37;99910.10;124993;1102;109576;-79
2021/05/20 07:26:54;;;;;;;12.77;5.83;;;;;;;14.34;70.27;99911.02;125023;1103;104134;-79
2021/05/20 07:29:32;;;;;;;14.40;6.00;;;;;;;14.35;70.29;99904.88;125272;1099;102556;-78
2021/05/20 07:32:15;;;;;;;10.73;5.63;;;;;;;14.42;69.96;99912.86;125178;1102;102438;-78
2021/05/20 07:35:08;;;;;;;16.63;5.40;;;;;;;14.39;70.15;99911.06;124918;1102;103999;-77
2021/05/20 07:37:43;;;;;;;12.93;5.60;;;;;;;14.48;71.09;99912.92;124959;1097;104197;-77
2021/05/20 07:40:16;;;;;;;11.53;6.07;;;;;;;14.59;70.80;99898.07;125063;1102;102141;-77
2021/05/20 07:42:50;;;;;;;;;;;;;;;14.66;71.25;99899.03;124975;1099;104392;-78
2021/05/20 07:45:22;;;;;;;12.90;6.70;;;;;;;14.74;71.15;99898.25;124942;1102;103928;-78
2021/05/20 07:47:54;;;;;;;13.03;6.40;;;;;;;14.83;70.25;99900.07;124753;1102;102469;-77
2021/05/20 07:50:30;;;;;;;13.20;5.60;;;;;;;14.91;70.79;99900.13;125097;1102;103955;-79
2021/05/20 07:53:10;;;;;;;13.17;6.30;;;;;;;15.01;70.26;99904.64;125129;1102;103990;-79
2021/05/20 07:58:58;;;;;;;11.07;6.40;;;;;;;15.26;70.57;99902.18;125333;1105;103936;-77
2021/05/20 08:01:49;;;;;;;14.97;6.27;;;;;;;15.32;69.97;99903.97;124852;1106;104093;-77
2021/05/20 08:04:27;;;;;;;13.32;6.60;;;;;;;15.38;70.72;99904.91;124774;1105;103982;-77
2021/05/20 08:07:08;;;;;;;11.70;6.37;;;;;;;15.51;70.20;99903.22;124817;1105;103944;-77
2021/05/20 08:09:47;;;;;;;14.13;7.10;;;;;;;15.57;69.65;99911.19;124808;1105;104171;-79
2021/05/20 08:12:24;;;;;;;15.20;7.23;;;;;;;15.66;69.74;99912.11;124755;1105;102062;-77
2021/05/20 08:14:55;;;;;;;13.77;7.20;;;;;;;15.71;69.74;99923.63;124755;1105;104312;-78
2021/05/20 08:17:26;;;;;;;12.43;6.93;;;;;;;15.74;70.54;99921.87;124734;1102;104015;-78
2021/05/20 08:20:03;;;;;;;13.80;7.40;;;;;;;15.83;70.18;99913.11;125024;1102;103961;-78
2021/05/20 08:22:38;;;;;;;14.80;6.73;;;;;;;15.91;69.87;99919.34;125013;1102;104085;-79
2021/05/20 08:25:11;;;;;;;14.63;6.67;;;;;;;15.94;69.83;99914.06;125276;1102;103979;-78
2021/05/20 08:27:42;;;;;;;15.03;6.90;;;;;;;16.03;69.83;99917.63;124949;1102;117948;-76
2021/05/20 08:30:15;;;;;;;12.40;6.55;;;;;;;16.03;70.29;99915.84;124955;1102;104088;-76
2021/05/20 08:32:52;;;;;;;16.25;7.42;;;;;;;16.05;70.53;99905.27;124973;1099;103919;-76
2021/05/20 08:38:22;;;;;;;15.20;7.30;;;;;;;15.96;69.84;99917.59;124896;1102;104143;-77
2021/05/20 08:40:54;;;;;;;17.50;7.40;;;;;;;15.90;69.76;99921.98;125011;1102;103963;-78
2021/05/20 08:43:24;;;;;;;14.40;7.10;;;;;;;15.81;69.83;99918.39;124752;1102;104038;-76
2021/05/20 08:45:57;;;;;;;15.00;7.20;;;;;;;15.71;69.79;99921.85;125149;1102;104120;-77
2021/05/20 08:48:28;;;;;;;13.87;7.80;;;;;;;15.76;70.65;99924.52;124913;1105;103941;-77
2021/05/20 08:51:01;;;;;;;20.10;8.03;;;;;;;15.85;69.82;99915.77;125104;1102;104104;-77
2021/05/20 08:53:38;;;;;;;15.93;7.43;;;;;;;15.92;70.05;99922.86;125048;1102;104045;-77
2021/05/20 08:56:12;;;;;;;16.57;7.53;;;;;;;15.87;69.63;99925.48;125007;1102;103977;-77
2021/05/20 08:58:45;;;;;;;27.10;16.10;;;;;;;15.84;69.40;99932.53;124808;1102;104005;-77
2021/05/20 09:01:33;;;;;;;15.88;8.25;;;;;;;15.78;69.30;99922.79;124945;1102;104206;-78
2021/05/20 09:04:07;;;;;;;14.20;7.87;;;;;;;15.78;69.40;99926.34;124819;1103;104063;-77
2021/05/20 09:06:46;;;;;;;15.33;8.43;;;;;;;15.80;70.00;99926.36;124936;1102;104178;-77
2021/05/20 09:09:22;;;;;;;14.43;7.87;;;;;;;15.69;69.18;99913.03;124884;1102;104117;-78
2021/05/20 09:11:55;;;;;;;14.97;7.57;;;;;;;15.71;68.97;99931.56;125017;1102;103952;-78
2021/05/20 09:14:38;;;;;;;19.07;9.33;;;;;;;15.64;69.13;99925.33;125032;1102;104029;-81
2021/05/20 09:17:16;;;;;;;18.47;9.17;;;;;;;15.69;69.69;99923.61;125077;1102;104111;-79
2021/05/20 09:20:00;;;;;;;15.13;6.80;;;;;;;15.70;69.50;99922.72;124966;1102;103947;-78
2021/05/20 09:22:31;;;;;;;15.83;7.40;;;;;;;15.70;68.93;99922.72;125029;1102;103947;-78
2021/05/20 09:25:13;;;;;;;12.53;6.50;;;;;;;15.69;69.04;99920.06;125059;1102;104027;-78
2021/05/20 09:27:49;;;;;;;11.13;6.47;;;;;;;15.61;69.29;99920.92;125465;1102;103983;-79
2021/05/20 09:30:22;;;;;;;13.87;6.33;;;;;;;15.58;69.11;99925.28;125568;1102;103193;-77
2021/05/20 09:32:57;;;;;;;13.07;7.07;;;;;;;15.53;68.95;99927.03;125026;1102;104150;-78
2021/05/20 09:35:30;;;;;;;15.90;7.07;;;;;;;15.45;69.25;99919.05;124920;1102;104005;-78
2021/05/20 09:38:07;;;;;;;16.83;7.67;;;;;;;15.39;69.95;99921.64;124904;1102;104130;-78
2021/05/20 09:40:43;;;;;;;18.27;7.70;;;;;;;15.40;70.06;99920.78;125032;1103;103963;-80
2021/05/20 09:43:21;;;;;;;16.80;8.20;;;;;;;15.46;69.49;99915.54;125040;1105;103951;-80
2021/05/20 09:45:55;;;;;;;17.80;9.05;;;;;;;15.54;69.46;99920.88;124839;1105;103986;-79
2021/05/20 09:48:38;;;;;;;19.65;8.85;;;;;;;15.59;70.22;99917.36;124700;1105;104044;-80
2021/05/20 09:51:24;;;;;;;19.30;8.83;;;;;;;15.61;70.21;99920.02;125106;1102;103916;-80
2021/05/20 09:53:58;;;;;;;24.10;9.53;;;;;;;15.53;69.03;99914.68;125063;1102;104040;-80
2021/05/20 09:56:55;;;;;;;19.87;9.50;;;;;;;15.43;69.95;99913.75;124826;1102;103923;-79
2021/05/20 09:59:39;;;;;;;23.30;10.50;;;;;;;15.31;69.38;99916.30;125006;1102;118010;-81
2021/05/20 10:02:31;;;;;;;25.47;11.33;;;;;;;15.23;69.40;99915.38;124959;1102;104171;-80
2021/05/20 10:05:27;;;;;;;20.27;10.20;;;;;;;15.24;70.19;99909.23;125350;1102;103996;-80
2021/05/20 10:08:05;;;;;;;20.63;11.20;;;;;;;15.29;69.91;99907.49;124994;1102;103123;-81
2021/05/20 10:10:39;;;;;;;19.70;10.43;;;;;;;15.34;70.17;99905.75;124938;1102;104117;-80
2021/05/20 10:13:20;;;;;;;21.60;10.60;;;;;;;15.29;69.79;99902.20;124734;1102;104191;-82
2021/05/20 10:16:04;;;;;;;19.53;10.20;;;;;;;15.26;69.46;99902.18;125121;1102;104000;-82
2021/05/20 10:18:42;;;;;;;19.03;9.77;;;;;;;15.24;70.04;99902.17;124980;1099;104085;-82
2021/05/20 10:21:23;;;;;;;19.60;10.33;;;;;;;15.24;70.17;99901.30;124977;1102;103983;-80
2021/05/20 10:23:58;;;;;;;18.93;8.90;;;;;;;15.22;70.33;99901.28;124914;1102;103936;-81
2021/05/20 10:26:39;;;;;;;19.07;9.63;;;;;;;15.21;70.60;99903.92;124939;1102;104076;-80
2021/05/20 10:29:14;;;;;;;23.63;10.10;;;;;;;15.24;70.00;99903.94;124953;1102;104040;-79
2021/05/20 10:31:55;;;;;;;20.20;10.65;;;;;;;15.31;70.35;99904.86;125073;1102;104030;-80
2021/05/20 10:34:33;;;;;;;23.53;11.23;;;;;;;15.40;69.83;99903.16;125120;1102;103945;-81
2021/05/20 10:37:21;;;;;;;23.30;11.57;;;;;;;15.42;69.77;99909.33;125171;1099;102345;-79
2021/05/20 10:43:18;;;;;;;23.07;13.27;;;;;;;15.55;69.96;99904.11;125170;1102;104239;-78
2021/05/20 10:46:05;;;;;;;26.33;14.13;;;;;;;15.57;70.04;99902.39;125045;1102;103955;-79
2021/05/20 10:48:39;;;;;;;23.22;13.53;;;;;;;15.49;70.28;99896.14;125081;1102;106354;-79
2021/05/20 10:51:29;;;;;;;25.10;14.43;;;;;;;15.41;70.54;99897.00;125098;1102;104009;-80
2021/05/20 10:54:13;;;;;;;30.20;16.80;;;;;;;15.33;70.67;99890.76;124982;1102;103909;-79
2021/05/20 10:56:57;;;;;;;29.90;16.77;;;;;;;15.28;70.81;99887.20;125110;1102;103922;-78
2021/05/20 10:59:43;;;;;;;28.63;17.63;;;;;;;15.28;70.90;99885.44;125112;1102;104373;-78
2021/05/20 11:02:39;;;;;;;26.47;15.57;;;;;;;15.39;70.37;99889.92;125002;1102;104025;-80
2021/05/20 11:08:53;;;;;;;28.40;16.70;;;;;;;15.50;70.46;99888.22;124967;1102;104022;-80
2021/05/20 11:11:51;;;;;;;26.10;15.97;;;;;;;15.57;70.82;99889.16;125011;1102;108180;-82
2021/05/20 11:14:45;;;;;;;27.40;17.70;;;;;;;15.62;71.29;99885.65;125108;1102;102154;-82
2021/05/20 11:17:43;;;;;;;24.47;14.80;;;;;;;15.70;70.51;99876.88;125315;1102;102141;-83
2021/05/20 11:20:44;;;;;;;22.37;13.17;;;;;;;15.72;70.93;99885.70;124997;1102;104188;-81
2021/05/20 11:23:40;;;;;;;24.97;14.20;;;;;;;15.70;70.57;99874.23;125181;1102;104044;-80
2021/05/20 11:26:59;;;;;;;25.55;14.75;;;;;;;15.65;70.73;99876.86;125057;1102;103989;-79
2021/05/20 11:33:23;;;;;;;21.87;12.07;;;;;;;15.60;70.99;99870.67;125078;1105;113111;-81
2021/05/20 11:36:10;;;;;;;22.87;12.70;;;;;;;15.59;70.68;99875.05;124856;1105;104006;-80
2021/05/20 11:38:59;;;;;;;22.90;12.55;;;;;;;15.61;71.69;99877.70;124833;1102;104005;-79
2021/05/20 11:41:30;;;;;;;22.10;12.23;;;;;;;15.61;71.49;99872.42;124934;1103;102267;-81
2021/05/20 11:44:18;;;;;;;21.87;11.20;;;;;;;15.66;71.75;99875.99;124967;1102;104040;-82
2021/05/20 11:47:05;;;;;;;19.50;10.73;;;;;;;15.54;70.79;99875.92;125147;1102;104037;-80
2021/05/20 11:49:51;;;;;;;22.87;11.33;;;;;;;15.45;71.83;99872.33;125019;1102;103948;-82
2021/05/20 11:52:51;;;;;;;18.03;9.67;;;;;;;15.41;71.53;99865.28;124991;1105;104024;-87
2021/05/20 11:55:46;;;;;;;18.07;9.27;;;;;;;15.30;70.75;99866.08;124529;1105;102084;-81
2021/05/20 11:58:54;;;;;;;;;;;;;;;;;;;;;
2021/05/20 12:01:34;;;;;;;15.97;7.87;;;;;;;15.02;71.29;99857.95;124808;1106;103970;-79
2021/05/20 12:04:26;;;;;;;16.03;7.73;;;;;;;14.94;71.04;99863.17;124767;1105;104234;-80
2021/05/20 12:07:30;;;;;;;17.53;7.97;;;;;;;14.83;71.51;99862.22;124414;1105;102325;-80